地図

経路データ

SID SEASON NUMBER BASIN SUBBASIN NAME ISO_TIME NATURE LAT LON WMO_WIND WMO_PRES WMO_AGENCY TRACK_TYPE DIST2LAND LANDFALL IFLAG USA_AGENCY USA_ATCF_ID USA_LAT USA_LON USA_RECORD USA_STATUS USA_WIND USA_PRES USA_SSHS USA_R34_NE USA_R34_SE USA_R34_SW USA_R34_NW USA_R50_NE USA_R50_SE USA_R50_SW USA_R50_NW USA_R64_NE USA_R64_SE USA_R64_SW USA_R64_NW USA_POCI USA_ROCI USA_RMW USA_EYE TOKYO_LAT TOKYO_LON TOKYO_GRADE TOKYO_WIND TOKYO_PRES TOKYO_R50_DIR TOKYO_R50_LONG TOKYO_R50_SHORT TOKYO_R30_DIR TOKYO_R30_LONG TOKYO_R30_SHORT TOKYO_LAND CMA_LAT CMA_LON CMA_CAT CMA_WIND CMA_PRES HKO_LAT HKO_LON HKO_CAT HKO_WIND HKO_PRES NEWDELHI_LAT NEWDELHI_LON NEWDELHI_GRADE NEWDELHI_WIND NEWDELHI_PRES NEWDELHI_CI NEWDELHI_DP NEWDELHI_POCI REUNION_LAT REUNION_LON REUNION_TYPE REUNION_WIND REUNION_PRES REUNION_TNUM REUNION_CI REUNION_RMW REUNION_R34_NE REUNION_R34_SE REUNION_R34_SW REUNION_R34_NW REUNION_R50_NE REUNION_R50_SE REUNION_R50_SW REUNION_R50_NW REUNION_R64_NE REUNION_R64_SE REUNION_R64_SW REUNION_R64_NW BOM_LAT BOM_LON BOM_TYPE BOM_WIND BOM_PRES BOM_TNUM BOM_CI BOM_RMW BOM_R34_NE BOM_R34_SE BOM_R34_SW BOM_R34_NW BOM_R50_NE BOM_R50_SE BOM_R50_SW BOM_R50_NW BOM_R64_NE BOM_R64_SE BOM_R64_SW BOM_R64_NW BOM_ROCI BOM_POCI BOM_EYE BOM_POS_METHOD BOM_PRES_METHOD NADI_LAT NADI_LON NADI_CAT NADI_WIND NADI_PRES WELLINGTON_LAT WELLINGTON_LON WELLINGTON_WIND WELLINGTON_PRES DS824_LAT DS824_LON DS824_STAGE DS824_WIND DS824_PRES TD9636_LAT TD9636_LON TD9636_STAGE TD9636_WIND TD9636_PRES TD9635_LAT TD9635_LON TD9635_WIND TD9635_PRES TD9635_ROCI NEUMANN_LAT NEUMANN_LON NEUMANN_CLASS NEUMANN_WIND NEUMANN_PRES MLC_LAT MLC_LON MLC_CLASS MLC_WIND MLC_PRES USA_GUST BOM_GUST BOM_GUST_PER REUNION_GUST REUNION_GUST_PER USA_SEAHGT USA_SEARAD_NE USA_SEARAD_SE USA_SEARAD_SW USA_SEARAD_NW STORM_SPEED STORM_DIR
1959271N27310 1959 87 NA NA HANNAH 1959-09-27 12:00:00 TS 26.8000 -49.9000 30 hurdat_atl main 1862 1835 O_____________ hurdat_atl AL091959 26.8000 -49.9000 TD 30 -1 5 281
1959271N27310 1959 87 NA NA HANNAH 1959-09-27 15:00:00 TS 26.8526 -50.1899 main 1840 1814 P_____________ AL091959 26.8526 -50.1899 TD 30 -1 5 281
1959271N27310 1959 87 NA NA HANNAH 1959-09-27 18:00:00 TS 26.9000 -50.5000 30 hurdat_atl main 1814 1788 O_____________ hurdat_atl AL091959 26.9000 -50.5000 TD 30 -1 6 279
1959271N27310 1959 87 NA NA HANNAH 1959-09-27 21:00:00 TS 26.9425 -50.8426 main 1788 1759 P_____________ AL091959 26.9425 -50.8426 TD 32 -1 6 279
1959271N27310 1959 87 NA NA HANNAH 1959-09-28 00:00:00 TS 27.0000 -51.2000 35 hurdat_atl main 1759 1739 O_____________ hurdat_atl AL091959 27.0000 -51.2000 TS 35 0 6 283
1959271N27310 1959 87 NA NA HANNAH 1959-09-28 03:00:00 TS 27.0848 -51.5351 main 1739 1711 P_____________ AL091959 27.0848 -51.5351 TS 37 0 7 288
1959271N27310 1959 87 NA NA HANNAH 1959-09-28 06:00:00 TS 27.2000 -51.9000 40 hurdat_atl main 1711 1684 O_____________ hurdat_atl AL091959 27.2000 -51.9000 TS 40 0 7 292
1959271N27310 1959 87 NA NA HANNAH 1959-09-28 09:00:00 TS 27.3572 -52.3124 main 1690 1656 P_____________ AL091959 27.3572 -52.3124 TS 42 0 9 291
1959271N27310 1959 87 NA NA HANNAH 1959-09-28 12:00:00 TS 27.5000 -52.8000 45 hurdat_atl main 1656 1623 O_____________ hurdat_atl AL091959 27.5000 -52.8000 TS 45 0 10 284
1959271N27310 1959 87 NA NA HANNAH 1959-09-28 15:00:00 TS 27.5873 -53.3623 main 1615 1568 P_____________ AL091959 27.5873 -53.3623 TS 50 0 11 275
1959271N27310 1959 87 NA NA HANNAH 1959-09-28 18:00:00 TS 27.6000 -54.0000 55 hurdat_atl main 1568 1522 O_____________ hurdat_atl AL091959 27.6000 -54.0000 TS 55 0 11 269
1959271N27310 1959 87 NA NA HANNAH 1959-09-28 21:00:00 TS 27.5593 -54.6544 main 1515 1448 P_____________ AL091959 27.5593 -54.6544 TS 57 0 13 261
1959271N27310 1959 87 NA NA HANNAH 1959-09-29 00:00:00 TS 27.4000 -55.4000 60 996 hurdat_atl main 1448 1367 O_____________ hurdat_atl AL091959 27.4000 -55.4000 TS 60 996 0 15 251
1959271N27310 1959 87 NA NA HANNAH 1959-09-29 03:00:00 TS 27.0650 -56.2711 main 1360 1272 P_____________ AL091959 27.0650 -56.2711 TS 62 0 18 246
1959271N27310 1959 87 NA NA HANNAH 1959-09-29 06:00:00 TS 26.7000 -57.2000 65 hurdat_atl main 1265 1194 O_____________ hurdat_atl AL091959 26.7000 -57.2000 HU 65 1 17 249
1959271N27310 1959 87 NA NA HANNAH 1959-09-29 09:00:00 TS 26.4542 -58.0847 main 1188 1119 P_____________ AL091959 26.4542 -58.0847 HU 67 1 17 256
1959271N27310 1959 87 NA NA HANNAH 1959-09-29 12:00:00 TS 26.3000 -59.0000 70 hurdat_atl main 1113 1044 O_____________ hurdat_atl AL091959 26.3000 -59.0000 HU 70 1 17 262
1959271N27310 1959 87 NA NA HANNAH 1959-09-29 15:00:00 TS 26.2202 -60.0146 main 1044 996 P_____________ AL091959 26.2202 -60.0146 HU 72 1 18 267
1959271N27310 1959 87 NA NA HANNAH 1959-09-29 18:00:00 TS 26.2000 -61.0000 75 hurdat_atl main 991 955 O_____________ hurdat_atl AL091959 26.2000 -61.0000 HU 75 1 17 269
1959271N27310 1959 87 NA NA HANNAH 1959-09-29 21:00:00 TS 26.1770 -61.8600 main 951 924 P_____________ AL091959 26.1770 -61.8600 HU 77 1 14 270
1959271N27310 1959 87 NA NA HANNAH 1959-09-30 00:00:00 TS 26.2000 -62.6000 80 hurdat_atl main 924 906 O_____________ hurdat_atl AL091959 26.2000 -62.6000 HU 80 1 13 274
1959271N27310 1959 87 NA NA HANNAH 1959-09-30 03:00:00 TS 26.2621 -63.2526 main 914 906 P_____________ AL091959 26.2621 -63.2526 HU 82 1 11 281
1959271N27310 1959 87 NA NA HANNAH 1959-09-30 06:00:00 TS 26.4000 -63.8000 85 hurdat_atl main 913 911 O_____________ hurdat_atl AL091959 26.4000 -63.8000 HU 85 2 10 290
1959271N27310 1959 87 NA NA HANNAH 1959-09-30 09:00:00 TS 26.5896 -64.2730 main 926 924 P_____________ AL091959 26.5896 -64.2730 HU 87 2 9 302
1959271N27310 1959 87 NA NA HANNAH 1959-09-30 12:00:00 TS 26.9000 -64.7000 90 975 hurdat_atl main 954 954 O_____________ hurdat_atl AL091959 26.9000 -64.7000 HU 90 975 2 11 315
1959271N27310 1959 87 NA NA HANNAH 1959-09-30 15:00:00 TS 27.3699 -65.1573 main 997 997 P_____________ AL091959 27.3699 -65.1573 HU 97 967 3 13 321
1959271N27310 1959 87 NA NA HANNAH 1959-09-30 18:00:00 TS 27.9000 -65.6000 105 959 hurdat_atl main 1029 1029 O_____________ hurdat_atl AL091959 27.9000 -65.6000 HU 105 959 3 13 323
1959271N27310 1959 87 NA NA HANNAH 1959-09-30 21:00:00 TS 28.3648 -66.0079 main 1063 1059 P_____________ AL091959 28.3648 -66.0079 HU 105 3 11 322
1959271N27310 1959 87 NA NA HANNAH 1959-10-01 00:00:00 TS 28.8000 -66.4000 105 hurdat_atl main 1077 1077 O_____________ hurdat_atl AL091959 28.8000 -66.4000 HU 105 3 11 321
1959271N27310 1959 87 NA NA HANNAH 1959-10-01 03:00:00 TS 29.1998 -66.7931 main 1089 1037 P_____________ AL091959 29.1998 -66.7931 HU 102 3 11 319
1959271N27310 1959 87 NA NA HANNAH 1959-10-01 06:00:00 TS 29.6000 -67.2000 100 hurdat_atl main 1037 979 O_____________ hurdat_atl AL091959 29.6000 -67.2000 HU 100 3 11 318
1959271N27310 1959 87 NA NA HANNAH 1959-10-01 09:00:00 TS 30.0274 -67.6429 main 979 906 P_____________ AL091959 30.0274 -67.6429 HU 100 3 12 319
1959271N27310 1959 87 NA NA HANNAH 1959-10-01 12:00:00 TS 30.5000 -68.1000 100 967 hurdat_atl main 906 833 O_____________ hurdat_atl AL091959 30.5000 -68.1000 HU 100 967 3 13 321
1959271N27310 1959 87 NA NA HANNAH 1959-10-01 15:00:00 TS 31.0427 -68.6018 main 833 760 P_____________ AL091959 31.0427 -68.6018 HU 100 965 3 13 325
1959271N27310 1959 87 NA NA HANNAH 1959-10-01 18:00:00 TS 31.6000 -69.0000 100 963 hurdat_atl main 760 711 O_____________ hurdat_atl AL091959 31.6000 -69.0000 HU 100 963 3 12 335
1959271N27310 1959 87 NA NA HANNAH 1959-10-01 21:00:00 TS 32.1147 -69.1904 main 711 679 P_____________ AL091959 32.1147 -69.1904 HU 100 3 10 350
1959271N27310 1959 87 NA NA HANNAH 1959-10-02 00:00:00 TS 32.6000 -69.2000 100 hurdat_atl main 679 655 O_____________ hurdat_atl AL091959 32.6000 -69.2000 HU 100 3 10 3
1959271N27310 1959 87 NA NA HANNAH 1959-10-02 03:00:00 TS 33.0797 -69.1325 main 658 647 P_____________ AL091959 33.0797 -69.1325 HU 100 3 9 15
1959271N27310 1959 87 NA NA HANNAH 1959-10-02 06:00:00 TS 33.5000 -68.9000 100 hurdat_atl main 654 654 O_____________ hurdat_atl AL091959 33.5000 -68.9000 HU 100 3 9 35
1959271N27310 1959 87 NA NA HANNAH 1959-10-02 09:00:00 TS 33.8378 -68.4878 main 675 671 P_____________ AL091959 33.8378 -68.4878 HU 100 3 10 51
1959271N27310 1959 87 NA NA HANNAH 1959-10-02 12:00:00 TS 34.1000 -68.0000 100 hurdat_atl main 707 707 O_____________ hurdat_atl AL091959 34.1000 -68.0000 HU 100 3 9 58
1959271N27310 1959 87 NA NA HANNAH 1959-10-02 15:00:00 TS 34.3074 -67.5845 main 736 736 P_____________ AL091959 34.3074 -67.5845 HU 97 3 8 59
1959271N27310 1959 87 NA NA HANNAH 1959-10-02 18:00:00 TS 34.5000 -67.2000 95 961 hurdat_atl main 766 766 O_____________ hurdat_atl AL091959 34.5000 -67.2000 HU 95 961 2 8 53
1959271N27310 1959 87 NA NA HANNAH 1959-10-02 21:00:00 TS 34.7573 -66.8500 main 795 795 P_____________ AL091959 34.7573 -66.8500 HU 95 2 8 49
1959271N27310 1959 87 NA NA HANNAH 1959-10-03 00:00:00 TS 35.0000 -66.5000 95 hurdat_atl main 805 798 O_____________ hurdat_atl AL091959 35.0000 -66.5000 HU 95 2 7 56
1959271N27310 1959 87 NA NA HANNAH 1959-10-03 03:00:00 TS 35.1573 -66.1220 main 798 798 P_____________ AL091959 35.1573 -66.1220 HU 92 2 7 65
1959271N27310 1959 87 NA NA HANNAH 1959-10-03 06:00:00 TS 35.3000 -65.7000 90 hurdat_atl main 804 798 O_____________ hurdat_atl AL091959 35.3000 -65.7000 HU 90 2 8 65
1959271N27310 1959 87 NA NA HANNAH 1959-10-03 09:00:00 TS 35.4922 -65.2373 main 805 800 P_____________ AL091959 35.4922 -65.2373 HU 87 2 9 64
1959271N27310 1959 87 NA NA HANNAH 1959-10-03 12:00:00 TS 35.7000 -64.7000 85 966 hurdat_atl main 809 809 O_____________ hurdat_atl AL091959 35.7000 -64.7000 HU 85 966 2 10 67
1959271N27310 1959 87 NA NA HANNAH 1959-10-03 15:00:00 TS 35.9077 -64.0576 main 822 822 P_____________ AL091959 35.9077 -64.0576 HU 85 2 11 69
1959271N27310 1959 87 NA NA HANNAH 1959-10-03 18:00:00 TS 36.1000 -63.4000 85 hurdat_atl main 839 831 O_____________ hurdat_atl AL091959 36.1000 -63.4000 HU 85 2 11 71
1959271N27310 1959 87 NA NA HANNAH 1959-10-03 21:00:00 TS 36.2573 -62.8122 main 828 825 P_____________ AL091959 36.2573 -62.8122 HU 85 2 9 71
1959271N27310 1959 87 NA NA HANNAH 1959-10-04 00:00:00 TS 36.4000 -62.3000 85 hurdat_atl main 830 822 O_____________ hurdat_atl AL091959 36.4000 -62.3000 HU 85 2 8 67
1959271N27310 1959 87 NA NA HANNAH 1959-10-04 03:00:00 TS 36.5565 -61.9221 main 820 815 P_____________ AL091959 36.5565 -61.9221 HU 85 2 7 65
1959271N27310 1959 87 NA NA HANNAH 1959-10-04 06:00:00 TS 36.7000 -61.5000 85 hurdat_atl main 822 822 O_____________ hurdat_atl AL091959 36.7000 -61.5000 HU 85 2 9 73
1959271N27310 1959 87 NA NA HANNAH 1959-10-04 09:00:00 TS 36.8073 -60.8672 main 833 833 P_____________ AL091959 36.8073 -60.8672 HU 85 2 11 80
1959271N27310 1959 87 NA NA HANNAH 1959-10-04 12:00:00 TS 36.9000 -60.1000 85 hurdat_atl main 855 855 O_____________ hurdat_atl AL091959 36.9000 -60.1000 HU 85 2 13 81
1959271N27310 1959 87 NA NA HANNAH 1959-10-04 15:00:00 TS 37.0145 -59.2878 main 883 883 P_____________ AL091959 37.0145 -59.2878 HU 85 2 14 82
1959271N27310 1959 87 NA NA HANNAH 1959-10-04 18:00:00 TS 37.1000 -58.4000 85 970 hurdat_atl main 919 919 O_____________ hurdat_atl AL091959 37.1000 -58.4000 HU 85 970 2 14 85
1959271N27310 1959 87 NA NA HANNAH 1959-10-04 21:00:00 TS 37.1286 -57.5026 main 949 949 P_____________ AL091959 37.1286 -57.5026 HU 85 2 15 90
1959271N27310 1959 87 NA NA HANNAH 1959-10-05 00:00:00 TS 37.1000 -56.5000 85 hurdat_atl main 979 979 O_____________ hurdat_atl AL091959 37.1000 -56.5000 HU 85 2 17 94
1959271N27310 1959 87 NA NA HANNAH 1959-10-05 03:00:00 TS 37.0219 -55.3524 main 1028 1028 P_____________ AL091959 37.0219 -55.3524 HU 85 2 19 96
1959271N27310 1959 87 NA NA HANNAH 1959-10-05 06:00:00 TS 36.9000 -54.1000 85 hurdat_atl main 1079 1079 O_____________ hurdat_atl AL091959 36.9000 -54.1000 HU 85 2 20 98
1959271N27310 1959 87 NA NA HANNAH 1959-10-05 09:00:00 TS 36.7469 -52.8747 main 1101 1101 P_____________ AL091959 36.7469 -52.8747 HU 87 2 21 98
1959271N27310 1959 87 NA NA HANNAH 1959-10-05 12:00:00 TS 36.6000 -51.5000 90 hurdat_atl main 1121 1121 O_____________ hurdat_atl AL091959 36.6000 -51.5000 HU 90 2 24 96
1959271N27310 1959 87 NA NA HANNAH 1959-10-05 15:00:00 TS 36.4993 -49.8759 main 1156 1156 P_____________ AL091959 36.4993 -49.8759 HU 90 2 27 94
1959271N27310 1959 87 NA NA HANNAH 1959-10-05 18:00:00 TS 36.4000 -48.1000 90 hurdat_atl main 1210 1210 O_____________ hurdat_atl AL091959 36.4000 -48.1000 HU 90 2 29 94
1959271N27310 1959 87 NA NA HANNAH 1959-10-05 21:00:00 TS 36.2786 -46.3015 main 1279 1279 P_____________ AL091959 36.2786 -46.3015 HU 90 2 29 96
1959271N27310 1959 87 NA NA HANNAH 1959-10-06 00:00:00 TS 36.1000 -44.5000 90 hurdat_atl main 1372 1372 O_____________ hurdat_atl AL091959 36.1000 -44.5000 HU 90 2 29 99
1959271N27310 1959 87 NA NA HANNAH 1959-10-06 03:00:00 TS 35.8132 -42.7543 main 1479 1479 P_____________ AL091959 35.8132 -42.7543 HU 90 2 28 102
1959271N27310 1959 87 NA NA HANNAH 1959-10-06 06:00:00 TS 35.5000 -41.1000 90 hurdat_atl main 1592 1592 O_____________ hurdat_atl AL091959 35.5000 -41.1000 HU 90 2 26 104
1959271N27310 1959 87 NA NA HANNAH 1959-10-06 09:00:00 TS 35.1635 -39.5974 main 1700 1700 P_____________ AL091959 35.1635 -39.5974 HU 90 2 25 102
1959271N27310 1959 87 NA NA HANNAH 1959-10-06 12:00:00 TS 35.0000 -38.1000 90 971 hurdat_atl main 1802 1802 O_____________ hurdat_atl AL091959 35.0000 -38.1000 HU 90 971 2 26 91
1959271N27310 1959 87 NA NA HANNAH 1959-10-06 15:00:00 TS 35.1274 -36.4671 main 1889 1872 P_____________ AL091959 35.1274 -36.4671 HU 90 2 28 80
1959271N27310 1959 87 NA NA HANNAH 1959-10-06 18:00:00 TS 35.5000 -34.7000 90 hurdat_atl main 1864 1728 O_____________ hurdat_atl AL091959 35.5000 -34.7000 HU 90 2 32 74
1959271N27310 1959 87 NA NA HANNAH 1959-10-06 21:00:00 TS 35.9992 -32.7221 main 1720 1609 P_____________ AL091959 35.9992 -32.7221 HU 87 2 33 71
1959271N27310 1959 87 NA NA HANNAH 1959-10-07 00:00:00 TS 36.6000 -30.8000 85 hurdat_atl main 1602 1522 O_____________ hurdat_atl AL091959 36.6000 -30.8000 HU 85 2 30 67
1959271N27310 1959 87 NA NA HANNAH 1959-10-07 03:00:00 TS 37.1730 -29.2212 main 1522 1476 P_____________ AL091959 37.1730 -29.2212 HU 85 2 27 63
1959271N27310 1959 87 NA NA HANNAH 1959-10-07 06:00:00 ET 37.8000 -27.8000 85 hurdat_atl main 1470 1436 O_____________ hurdat_atl AL091959 37.8000 -27.8000 EX 85 -4 26 60
1959271N27310 1959 87 NA NA HANNAH 1959-10-07 09:00:00 ET 38.4516 -26.3745 main 1441 1334 P_____________ AL091959 38.4516 -26.3745 EX 85 -4 27 58
1959271N27310 1959 87 NA NA HANNAH 1959-10-07 12:00:00 ET 39.2000 -24.9000 85 hurdat_atl main 1326 1188 O_____________ hurdat_atl AL091959 39.2000 -24.9000 EX 85 -4 28 59
1959271N27310 1959 87 NA NA HANNAH 1959-10-07 15:00:00 ET 39.9045 -23.2298 main 1179 1037 P_____________ AL091959 39.9045 -23.2298 EX 85 -4 32 55
1959271N27310 1959 87 NA NA HANNAH 1959-10-07 18:00:00 ET 41.0000 -21.5000 85 hurdat_atl main 1026 828 O_____________ hurdat_atl AL091959 41.0000 -21.5000 EX 85 -4 41 44
1959271N27310 1959 87 NA NA HANNAH 1959-10-07 21:00:00 ET 42.8413 -19.4242 main 819 724 P_____________ AL091959 42.8413 -19.4242 EX 82 -4 47 33
1959271N27310 1959 87 NA NA HANNAH 1959-10-08 00:00:00 ET 45.0000 -18.0000 80 hurdat_atl main 727 726 O_____________ hurdat_atl AL091959 45.0000 -18.0000 EX 80 -4 42 10
1959271N27310 1959 87 NA NA HANNAH 1959-10-08 03:00:00 ET 46.9980 -18.3475 main 775 711 P_____________ AL091959 46.9980 -18.3475 EX 80 -4 41 346
1959271N27310 1959 87 NA NA HANNAH 1959-10-08 06:00:00 ET 49.0000 -19.5000 80 967 hurdat_atl main 712 664 O_____________ hurdat_atl AL091959 49.0000 -19.5000 EX 80 967 -4 42 345
1959271N27310 1959 87 NA NA HANNAH 1959-10-08 09:00:00 ET 51.0686 -20.0308 main 661 661 P_____________ AL091959 51.0686 -20.0308 EX 75 -4 41 348
1959271N27310 1959 87 NA NA HANNAH 1959-10-08 12:00:00 ET 53.0000 -20.9000 70 hurdat_atl main 705 705 O_____________ hurdat_atl AL091959 53.0000 -20.9000 EX 70 -4 39 336
1959271N27310 1959 87 NA NA HANNAH 1959-10-08 15:00:00 ET 54.6140 -22.6324 main 804 804 P_____________ AL091959 54.6140 -22.6324 EX 67 -4 38 322
1959271N27310 1959 87 NA NA HANNAH 1959-10-08 18:00:00 ET 56.0000 -25.0000 65 hurdat_atl main 871 O_____________ hurdat_atl AL091959 56.0000 -25.0000 EX 65 -4 38 316

IBTrACS Databaseについて

本データベースは、米国NOAAが公開する1842年以降の世界の熱帯低気圧のベストトラックデータアーカイブInternational Best Track Archive for Climate Stewardship (IBTrACS)を、ウェブで閲覧しやすい形式に変換したものです。

最終更新日:2021-10-27